createdAt,value
2018-08-16T00:00:21.170Z,4.90
2018-08-16T00:01:21.133Z,4.80
2018-08-16T00:02:21.098Z,4.50
2018-08-16T00:03:21.065Z,4.90
2018-08-16T00:04:21.030Z,4.80
2018-08-16T00:05:21.004Z,4.80
2018-08-16T00:06:20.967Z,4.90
2018-08-16T00:07:20.935Z,4.80
2018-08-16T00:08:20.906Z,5.10
2018-08-16T00:09:20.865Z,5.20
2018-08-16T00:10:20.832Z,5.30
2018-08-16T00:11:20.801Z,5.00
2018-08-16T00:12:20.769Z,4.70
2018-08-16T00:13:20.730Z,4.80
2018-08-16T00:14:20.698Z,5.30
2018-08-16T00:15:20.665Z,4.80
2018-08-16T00:16:20.630Z,5.10
2018-08-16T00:17:20.603Z,5.10
2018-08-16T00:18:20.568Z,4.90
2018-08-16T00:19:20.534Z,5.40
2018-08-16T00:20:20.504Z,5.50
2018-08-16T00:21:20.463Z,5.20
2018-08-16T00:22:20.431Z,5.30
2018-08-16T00:23:20.450Z,5.10
2018-08-16T00:24:20.363Z,5.20
2018-08-16T00:25:20.337Z,5.20
2018-08-16T00:26:20.302Z,5.30
2018-08-16T00:27:20.265Z,5.80
2018-08-16T00:28:20.232Z,5.30
2018-08-16T00:29:20.202Z,5.30
2018-08-16T00:30:20.167Z,5.00
2018-08-16T00:31:20.132Z,5.30
2018-08-16T00:32:20.101Z,4.70
2018-08-16T00:33:20.063Z,5.10
2018-08-16T00:34:20.032Z,5.00
2018-08-16T00:35:19.996Z,5.20
2018-08-16T00:36:19.960Z,4.90
2018-08-16T00:37:19.933Z,5.20
2018-08-16T00:38:19.896Z,4.80
2018-08-16T00:39:19.863Z,5.60
2018-08-16T00:40:19.832Z,4.80
2018-08-16T00:41:19.794Z,4.90
2018-08-16T00:42:19.761Z,5.10
2018-08-16T00:43:19.730Z,5.70
2018-08-16T00:44:19.698Z,4.90
2018-08-16T00:45:19.661Z,5.30
2018-08-16T00:46:19.626Z,4.90
2018-08-16T00:47:19.596Z,5.00
2018-08-16T00:48:19.562Z,5.20
2018-08-16T00:49:19.530Z,5.00
2018-08-16T00:50:19.494Z,5.10
2018-08-16T00:51:19.465Z,5.70
2018-08-16T00:52:19.430Z,5.40
2018-08-16T00:53:19.396Z,5.10
2018-08-16T00:54:19.355Z,5.00
2018-08-16T00:55:19.324Z,5.20
2018-08-16T00:56:19.289Z,5.50
2018-08-16T00:57:19.263Z,5.10
2018-08-16T00:58:19.227Z,5.40
2018-08-16T00:59:19.190Z,5.40
2018-08-16T01:00:19.154Z,5.00
2018-08-16T01:01:19.127Z,5.30
2018-08-16T01:02:19.098Z,5.50
2018-08-16T01:03:19.056Z,5.50
2018-08-16T01:04:19.025Z,5.30
2018-08-16T01:05:18.987Z,5.50
2018-08-16T01:06:18.953Z,5.80
2018-08-16T01:07:18.918Z,5.30
2018-08-16T01:08:18.887Z,5.70
2018-08-16T01:09:18.857Z,5.50
2018-08-16T01:10:18.820Z,5.60
2018-08-16T01:11:18.787Z,5.70
2018-08-16T01:12:18.754Z,5.80
2018-08-16T01:13:18.715Z,5.90
2018-08-16T01:14:18.684Z,5.50
2018-08-16T01:15:18.651Z,5.60
2018-08-16T01:16:18.620Z,5.30
2018-08-16T01:17:18.583Z,5.40
2018-08-16T01:18:18.547Z,5.30
2018-08-16T01:19:18.513Z,5.40
2018-08-16T01:20:18.541Z,5.80
2018-08-16T01:21:18.457Z,4.80
2018-08-16T01:22:18.415Z,5.00
2018-08-16T01:23:18.382Z,5.50
2018-08-16T01:24:18.350Z,5.40
2018-08-16T01:25:18.309Z,5.40
2018-08-16T01:26:18.284Z,5.80
2018-08-16T01:27:18.251Z,5.20
2018-08-16T01:28:18.206Z,5.60
2018-08-16T01:29:18.183Z,5.30
2018-08-16T01:30:18.143Z,5.50
2018-08-16T01:31:18.109Z,5.40
2018-08-16T01:32:18.071Z,5.40
2018-08-16T01:33:18.046Z,5.50
2018-08-16T01:34:18.007Z,5.50
2018-08-16T01:35:17.975Z,5.10
2018-08-16T01:36:17.944Z,5.60
2018-08-16T01:37:17.909Z,5.00
2018-08-16T01:38:17.874Z,6.10
2018-08-16T01:39:17.836Z,5.30
2018-08-16T01:40:17.803Z,5.70
2018-08-16T01:41:17.778Z,5.70
2018-08-16T01:42:17.741Z,5.90
2018-08-16T01:43:17.707Z,5.40
2018-08-16T01:44:17.671Z,5.80
2018-08-16T01:45:17.632Z,5.80
2018-08-16T01:46:17.601Z,5.60
2018-08-16T01:47:17.569Z,5.30
2018-08-16T01:48:17.537Z,5.70
2018-08-16T01:49:17.496Z,6.40
2018-08-16T01:50:17.463Z,5.10
2018-08-16T01:51:17.432Z,5.40
2018-08-16T01:52:17.393Z,5.20
2018-08-16T01:53:17.366Z,4.80
2018-08-16T01:54:17.331Z,5.40
2018-08-16T01:55:17.294Z,5.50
2018-08-16T01:56:17.267Z,5.70
2018-08-16T01:57:17.224Z,5.60
2018-08-16T01:58:17.192Z,5.60
2018-08-16T01:59:17.156Z,5.50
2018-08-16T02:00:17.121Z,5.40
2018-08-16T02:01:17.095Z,5.10
2018-08-16T02:02:17.056Z,5.10
2018-08-16T02:03:17.021Z,5.60
2018-08-16T02:04:16.986Z,4.90
2018-08-16T02:05:16.983Z,5.00
2018-08-16T02:06:16.921Z,5.40
2018-08-16T02:07:16.888Z,5.30
2018-08-16T02:08:16.856Z,5.50
2018-08-16T02:09:16.817Z,5.20
2018-08-16T02:10:16.785Z,5.40
2018-08-16T02:11:16.748Z,5.20
2018-08-16T02:12:16.712Z,5.30
2018-08-16T02:13:16.685Z,5.50
2018-08-16T02:14:16.649Z,5.40
2018-08-16T02:15:16.615Z,5.70
2018-08-16T02:16:16.583Z,5.50
2018-08-16T02:17:16.542Z,5.50
2018-08-16T02:18:16.511Z,5.40
2018-08-16T02:19:16.481Z,6.00
2018-08-16T02:20:16.447Z,5.60
2018-08-16T02:21:16.407Z,6.20
2018-08-16T02:22:16.380Z,6.60
2018-08-16T02:23:16.342Z,6.20
2018-08-16T02:24:16.312Z,6.20
2018-08-16T02:25:16.275Z,5.90
2018-08-16T02:26:16.239Z,6.00
2018-08-16T02:27:16.204Z,5.50
2018-08-16T02:28:16.174Z,5.80
2018-08-16T02:29:16.134Z,5.80
2018-08-16T02:30:16.103Z,5.40
2018-08-16T02:31:16.065Z,5.50
2018-08-16T02:32:16.029Z,5.50
2018-08-16T02:33:16.006Z,5.30
2018-08-16T02:34:15.964Z,5.40
2018-08-16T02:35:15.930Z,5.50
2018-08-16T02:36:15.896Z,5.70
2018-08-16T02:37:15.865Z,5.40
2018-08-16T02:38:15.827Z,6.00
2018-08-16T02:39:15.794Z,5.90
2018-08-16T02:40:15.762Z,6.00
2018-08-16T02:41:15.722Z,6.10
2018-08-16T02:42:15.689Z,5.80
2018-08-16T02:43:15.664Z,5.60
2018-08-16T02:44:15.621Z,5.50
2018-08-16T02:45:15.593Z,5.80
2018-08-16T02:46:15.553Z,5.80
2018-08-16T02:47:15.519Z,5.90
2018-08-16T02:48:15.487Z,6.10
2018-08-16T02:49:15.447Z,6.40
2018-08-16T02:50:15.415Z,6.10
2018-08-16T02:51:15.383Z,6.70
2018-08-16T02:52:15.349Z,6.30
2018-08-16T02:53:15.310Z,6.20
2018-08-16T02:54:15.280Z,6.30
2018-08-16T02:55:15.243Z,5.80
2018-08-16T02:56:15.206Z,6.60
2018-08-16T02:57:15.179Z,6.10
2018-08-16T02:58:15.151Z,6.80
2018-08-16T02:59:15.114Z,6.50
2018-08-16T03:00:15.078Z,5.80
2018-08-16T03:01:15.036Z,6.00
2018-08-16T03:02:15.004Z,5.70
2018-08-16T03:03:14.972Z,6.20
2018-08-16T03:04:14.937Z,6.00
2018-08-16T03:05:15.305Z,5.50
2018-08-16T03:06:14.885Z,5.80
2018-08-16T03:07:14.833Z,5.60
2018-08-16T03:08:14.800Z,5.40
2018-08-16T03:09:14.769Z,5.40
2018-08-16T03:10:14.731Z,5.60
2018-08-16T03:11:14.699Z,5.70
2018-08-16T03:12:14.666Z,5.30
2018-08-16T03:13:14.627Z,5.10
2018-08-16T03:14:14.596Z,5.30
2018-08-16T03:15:14.559Z,5.30
2018-08-16T03:16:14.535Z,5.10
2018-08-16T03:17:14.496Z,5.50
2018-08-16T03:18:14.458Z,5.40
2018-08-16T03:19:14.423Z,5.40
2018-08-16T03:20:14.392Z,5.60
2018-08-16T03:21:14.350Z,5.80
2018-08-16T03:22:14.318Z,5.80
2018-08-16T03:23:14.285Z,5.80
2018-08-16T03:24:14.256Z,5.30
2018-08-16T03:25:14.215Z,5.60
2018-08-16T03:26:14.180Z,5.30
2018-08-16T03:27:14.145Z,5.00
2018-08-16T03:28:14.111Z,5.00
2018-08-16T03:29:14.081Z,5.60
2018-08-16T03:30:14.049Z,5.90
2018-08-16T03:31:14.009Z,5.70
2018-08-16T03:32:13.981Z,5.90
2018-08-16T03:33:13.941Z,5.90
2018-08-16T03:34:13.903Z,5.60
2018-08-16T03:35:13.922Z,5.50
2018-08-16T03:36:13.834Z,5.50
2018-08-16T03:37:13.804Z,6.20
2018-08-16T03:38:13.773Z,6.00
2018-08-16T03:39:13.736Z,5.30
2018-08-16T03:40:13.695Z,5.40
2018-08-16T03:41:13.667Z,5.30
2018-08-16T03:42:13.630Z,5.10
2018-08-16T03:43:13.594Z,5.80
2018-08-16T03:44:13.562Z,5.40
2018-08-16T03:45:13.526Z,5.90
2018-08-16T03:46:13.490Z,6.40
2018-08-16T03:47:13.455Z,5.70
2018-08-16T03:48:13.449Z,5.60
2018-08-16T03:49:13.406Z,5.70
2018-08-16T03:50:13.353Z,5.50
2018-08-16T03:51:13.318Z,5.50
2018-08-16T03:52:13.286Z,5.50
2018-08-16T03:53:13.245Z,6.10
2018-08-16T04:07:25.934Z,4.70
2018-08-16T04:08:25.855Z,6.10
2018-08-16T04:09:25.822Z,6.40
2018-08-16T04:10:25.771Z,6.50
2018-08-16T04:11:25.733Z,6.40
2018-08-16T04:12:26.108Z,5.90
2018-08-16T04:13:25.661Z,6.50
2018-08-16T04:14:25.621Z,6.10
2018-08-16T04:15:25.582Z,6.00
2018-08-16T04:16:25.544Z,6.10
2018-08-16T04:17:25.516Z,6.50
2018-08-16T04:18:25.483Z,6.40
2018-08-16T04:19:25.458Z,6.10
2018-08-16T04:20:25.405Z,6.20
2018-08-16T04:21:25.365Z,6.00
2018-08-16T04:22:25.328Z,6.20
2018-08-16T04:23:25.293Z,6.10
2018-08-16T04:24:25.255Z,6.20
2018-08-16T04:25:25.226Z,6.60
2018-08-16T04:26:25.201Z,7.10
2018-08-16T04:27:25.155Z,6.80
2018-08-16T04:28:25.128Z,6.50
2018-08-16T04:29:25.079Z,6.80
2018-08-16T04:30:25.045Z,6.30
2018-08-16T04:31:25.011Z,6.60
2018-08-16T04:32:24.976Z,6.80
2018-08-16T04:33:24.937Z,6.30
2018-08-16T04:34:24.903Z,7.00
2018-08-16T04:35:24.915Z,6.20
2018-08-16T04:36:24.833Z,6.60
2018-08-16T04:37:24.801Z,6.90
2018-08-16T04:38:24.765Z,6.60
2018-08-16T04:39:24.736Z,6.50
2018-08-16T04:40:24.693Z,6.40
2018-08-16T04:41:24.730Z,6.70
2018-08-16T04:42:24.619Z,6.90
2018-08-16T04:43:24.586Z,6.60
2018-08-16T04:44:24.550Z,7.20
2018-08-16T04:45:24.529Z,6.60
2018-08-16T04:46:24.485Z,6.90
2018-08-16T04:47:24.444Z,7.40
2018-08-16T04:48:24.414Z,7.40
2018-08-16T04:49:24.377Z,7.40
2018-08-16T04:50:24.348Z,6.80
2018-08-16T04:51:24.314Z,7.10
2018-08-16T04:52:24.272Z,6.60
2018-08-16T04:53:24.234Z,7.20
2018-08-16T04:54:24.200Z,7.00
2018-08-16T04:55:24.162Z,6.90
2018-08-16T04:56:24.129Z,6.40
2018-08-16T04:57:24.096Z,6.40
2018-08-16T04:58:24.064Z,6.20
2018-08-16T04:59:24.028Z,6.60
2018-08-16T05:00:23.992Z,6.20
2018-08-16T05:01:23.957Z,6.50
2018-08-16T05:02:23.918Z,6.30
2018-08-16T05:03:23.890Z,6.30
2018-08-16T05:04:23.854Z,6.40
2018-08-16T05:05:23.817Z,6.00
2018-08-16T05:06:23.779Z,6.80
2018-08-16T05:07:23.746Z,6.00
2018-08-16T05:08:23.710Z,5.90
2018-08-16T05:09:23.680Z,5.70
2018-08-16T05:10:23.646Z,6.30
2018-08-16T05:11:23.611Z,6.30
2018-08-16T05:12:23.575Z,6.20
2018-08-16T05:13:23.540Z,5.60
2018-08-16T05:14:23.502Z,5.50
2018-08-16T05:15:23.467Z,5.60
2018-08-16T05:16:23.435Z,6.00
2018-08-16T05:17:23.561Z,5.70
2018-08-16T05:18:23.437Z,6.40
2018-08-16T05:19:23.328Z,6.00
2018-08-16T05:20:23.309Z,5.40
2018-08-16T05:21:23.262Z,6.30
2018-08-16T05:22:23.230Z,6.00
2018-08-16T05:23:23.189Z,6.10
2018-08-16T05:24:23.162Z,5.40
2018-08-16T05:25:23.129Z,6.30
2018-08-16T05:26:23.086Z,6.10
2018-08-16T05:27:23.057Z,5.70
2018-08-16T05:28:23.021Z,6.20
2018-08-16T05:29:22.987Z,6.20
2018-08-16T05:30:22.955Z,6.30
2018-08-16T05:31:22.921Z,5.60
2018-08-16T05:32:22.885Z,6.20
2018-08-16T05:33:22.847Z,6.10
2018-08-16T05:34:22.811Z,6.00
2018-08-16T05:35:22.784Z,5.50
2018-08-16T05:36:22.748Z,5.40
2018-08-16T05:37:22.711Z,5.40
2018-08-16T05:38:22.673Z,5.50
2018-08-16T05:39:22.644Z,5.50
2018-08-16T05:40:22.607Z,5.80
2018-08-16T05:41:22.576Z,5.90
2018-08-16T05:42:22.545Z,5.70
2018-08-16T05:43:22.525Z,5.90
2018-08-16T05:44:22.475Z,5.50
2018-08-16T05:45:22.437Z,5.40
2018-08-16T05:46:22.402Z,5.60
2018-08-16T05:47:22.372Z,5.80
2018-08-16T05:48:22.336Z,5.50
2018-08-16T05:49:22.304Z,5.10
2018-08-16T05:50:22.271Z,5.40
2018-08-16T05:51:22.231Z,5.80
2018-08-16T05:52:22.199Z,5.70
2018-08-16T05:53:22.166Z,5.80
2018-08-16T05:54:22.135Z,6.10
2018-08-16T05:55:22.102Z,5.90
2018-08-16T05:56:22.063Z,6.10
2018-08-16T05:57:22.029Z,5.80
2018-08-16T05:58:21.994Z,6.10
2018-08-16T05:59:21.982Z,5.60
2018-08-16T06:00:21.928Z,5.70
2018-08-16T06:01:21.901Z,5.70
2018-08-16T06:02:21.863Z,6.00
2018-08-16T06:03:21.830Z,5.40
2018-08-16T06:04:21.795Z,5.30
2018-08-16T06:05:21.758Z,5.60
2018-08-16T06:06:21.731Z,5.60
2018-08-16T06:07:21.698Z,6.20
2018-08-16T06:08:21.663Z,5.30
2018-08-16T06:09:21.623Z,5.10
2018-08-16T06:10:21.588Z,5.30
2018-08-16T06:11:21.554Z,4.90
2018-08-16T06:12:21.522Z,5.50
2018-08-16T06:13:21.492Z,4.90
2018-08-16T06:14:21.462Z,5.10
2018-08-16T06:15:21.456Z,5.20
2018-08-16T06:16:21.393Z,4.80
2018-08-16T06:17:21.354Z,5.10
2018-08-16T06:18:21.321Z,4.60
2018-08-16T06:19:21.286Z,4.90
2018-08-16T06:20:21.257Z,4.80
2018-08-16T06:21:21.225Z,5.20
2018-08-16T06:22:21.191Z,4.60
2018-08-16T06:23:21.154Z,4.70
2018-08-16T06:24:21.121Z,5.40
2018-08-16T06:25:21.089Z,4.30
2018-08-16T06:26:21.059Z,4.60
2018-08-16T06:27:21.039Z,4.40
2018-08-16T06:28:20.991Z,4.30
2018-08-16T06:29:20.956Z,4.30
2018-08-16T06:30:20.923Z,3.90
2018-08-16T06:31:20.887Z,4.20
2018-08-16T06:32:20.856Z,4.20
2018-08-16T06:33:20.830Z,4.20
2018-08-16T06:34:20.825Z,3.90
2018-08-16T06:35:20.766Z,4.30
2018-08-16T06:36:20.728Z,4.20
2018-08-16T06:37:20.692Z,4.40
2018-08-16T06:38:20.663Z,4.30
2018-08-16T06:39:20.633Z,4.30
2018-08-16T06:40:20.595Z,4.20
2018-08-16T06:41:20.560Z,4.10
2018-08-16T06:42:20.526Z,4.10
2018-08-16T06:43:20.493Z,4.10
2018-08-16T06:44:20.465Z,4.20
2018-08-16T06:45:20.431Z,4.10
2018-08-16T06:46:20.437Z,4.00
2018-08-16T06:47:20.369Z,4.50
2018-08-16T06:48:20.332Z,4.10
2018-08-16T06:49:20.299Z,4.40
2018-08-16T06:50:20.265Z,4.30
2018-08-16T06:51:20.232Z,3.80
2018-08-16T06:52:20.200Z,3.90
2018-08-16T06:53:20.170Z,4.20
2018-08-16T06:54:20.144Z,4.20
2018-08-16T06:55:20.103Z,4.20
2018-08-16T06:56:20.071Z,4.00
2018-08-16T06:57:20.040Z,3.80
2018-08-16T06:58:20.068Z,4.10
2018-08-16T06:59:19.977Z,4.20
2018-08-16T07:00:19.942Z,4.00
2018-08-16T07:01:19.908Z,3.80
2018-08-16T07:02:19.875Z,3.90
2018-08-16T07:03:19.843Z,4.00
2018-08-16T07:04:19.811Z,3.90
2018-08-16T07:05:19.781Z,4.20
2018-08-16T07:06:19.751Z,4.30
2018-08-16T07:07:19.719Z,3.90
2018-08-16T07:08:19.684Z,3.90
2018-08-16T07:09:19.650Z,4.00
2018-08-16T07:10:19.617Z,3.80
2018-08-16T07:11:19.593Z,3.70
2018-08-16T07:12:19.697Z,4.00
2018-08-16T07:13:19.522Z,4.10
2018-08-16T07:14:19.488Z,4.20
2018-08-16T07:15:19.460Z,4.20
2018-08-16T07:16:19.425Z,3.90
2018-08-16T07:17:19.398Z,4.10
2018-08-16T07:18:19.368Z,3.80
2018-08-16T07:19:19.335Z,4.30
2018-08-16T07:20:19.298Z,4.10
2018-08-16T07:21:19.265Z,4.70
2018-08-16T07:22:19.232Z,4.50
2018-08-16T07:23:19.200Z,4.00
2018-08-16T07:24:19.188Z,3.90
2018-08-16T07:25:19.139Z,4.00
2018-08-16T07:26:19.113Z,4.00
2018-08-16T07:27:19.074Z,4.10
2018-08-16T07:28:19.043Z,4.50
2018-08-16T07:29:19.015Z,4.40
2018-08-16T07:30:18.983Z,4.70
2018-08-16T07:31:18.955Z,4.40
2018-08-16T07:32:18.921Z,4.60
2018-08-16T07:33:18.884Z,4.60
2018-08-16T07:34:18.854Z,4.60
2018-08-16T07:35:18.817Z,4.30
2018-08-16T07:36:18.788Z,4.70
2018-08-16T07:37:18.758Z,4.40
2018-08-16T07:38:18.730Z,4.40
2018-08-16T07:39:18.696Z,5.10
2018-08-16T07:40:18.666Z,4.80
2018-08-16T07:41:18.632Z,5.10
2018-08-16T07:42:18.595Z,4.90
2018-08-16T07:43:18.570Z,5.00
2018-08-16T07:44:18.537Z,4.70
2018-08-16T07:45:18.507Z,4.60
2018-08-16T07:46:18.554Z,4.50
2018-08-16T07:47:18.437Z,4.80
2018-08-16T07:48:18.406Z,4.60
2018-08-16T07:49:18.378Z,4.30
2018-08-16T07:50:18.353Z,4.40
2018-08-16T07:51:18.434Z,4.60
2018-08-16T07:52:18.287Z,4.50
2018-08-16T07:53:18.250Z,4.50
2018-08-16T07:54:18.221Z,5.00
2018-08-16T07:55:18.187Z,4.60
2018-08-16T07:56:18.159Z,4.60
2018-08-16T07:57:18.126Z,4.70
2018-08-16T07:58:18.118Z,4.60
2018-08-16T07:59:18.062Z,4.60
2018-08-16T08:00:18.031Z,4.40
2018-08-16T08:01:18.001Z,4.50
2018-08-16T08:02:17.972Z,4.40
2018-08-16T08:03:17.942Z,4.70
2018-08-16T08:04:17.909Z,4.90
2018-08-16T08:05:17.877Z,4.50
2018-08-16T08:06:17.842Z,4.60
2018-08-16T08:07:17.810Z,4.50
2018-08-16T08:08:17.779Z,4.80
2018-08-16T08:09:17.766Z,4.70
2018-08-16T08:10:17.725Z,4.40
2018-08-16T08:11:17.691Z,4.70
2018-08-16T08:12:17.659Z,4.30
2018-08-16T08:13:17.625Z,4.40
2018-08-16T08:14:17.592Z,4.40
2018-08-16T08:15:17.607Z,4.30
2018-08-16T08:16:17.532Z,4.10
2018-08-16T08:17:17.499Z,4.20
2018-08-16T08:18:17.467Z,4.50
2018-08-16T08:19:17.435Z,4.10
2018-08-16T08:20:17.405Z,4.10
2018-08-16T08:21:17.378Z,4.30
2018-08-16T08:22:17.348Z,4.30
2018-08-16T08:23:17.317Z,4.50
2018-08-16T08:24:17.285Z,4.20
2018-08-16T08:25:17.284Z,4.10
2018-08-16T08:26:17.218Z,4.20
2018-08-16T08:27:17.191Z,4.80
2018-08-16T08:28:17.158Z,4.90
2018-08-16T08:29:17.130Z,4.00
2018-08-16T08:30:17.101Z,4.30
2018-08-16T08:31:17.065Z,3.70
2018-08-16T08:32:17.037Z,4.50
2018-08-16T08:33:17.006Z,4.30
2018-08-16T08:34:16.982Z,4.20
2018-08-16T08:35:16.946Z,4.70
2018-08-16T08:36:16.916Z,4.40
2018-08-16T08:37:16.881Z,4.10
2018-08-16T08:38:16.849Z,4.20
2018-08-16T08:39:16.821Z,4.20
2018-08-16T08:40:16.797Z,4.10
2018-08-16T08:41:16.760Z,4.20
2018-08-16T08:42:16.731Z,4.20
2018-08-16T08:43:16.702Z,5.00
2018-08-16T08:44:16.667Z,4.60
2018-08-16T08:45:16.635Z,4.60
2018-08-16T08:46:16.603Z,4.40
2018-08-16T08:47:16.579Z,4.10
2018-08-16T08:48:16.545Z,4.90
2018-08-16T08:49:16.512Z,4.20
2018-08-16T08:50:16.497Z,4.50
2018-08-16T08:51:16.450Z,4.60
2018-08-16T08:52:16.421Z,4.30
2018-08-16T08:53:16.394Z,4.20
2018-08-16T08:54:16.365Z,4.30
2018-08-16T08:55:16.329Z,4.30
2018-08-16T08:56:16.300Z,4.20
2018-08-16T08:57:16.270Z,4.40
2018-08-16T08:58:16.243Z,4.10
2018-08-16T08:59:16.262Z,4.10
2018-08-16T09:00:16.179Z,4.40
2018-08-16T09:01:16.146Z,4.50
2018-08-16T09:02:16.115Z,4.60
2018-08-16T09:03:16.093Z,4.20
2018-08-16T09:04:16.057Z,4.50
2018-08-16T09:05:16.027Z,4.20
2018-08-16T09:06:15.993Z,4.70
2018-08-16T09:07:15.963Z,4.00
2018-08-16T09:08:15.933Z,4.90
2018-08-16T09:09:15.909Z,4.30
2018-08-16T09:10:15.877Z,4.40
2018-08-16T09:11:15.846Z,4.40
2018-08-16T09:12:15.820Z,4.50
2018-08-16T09:13:15.782Z,4.50
2018-08-16T09:14:15.751Z,4.30
2018-08-16T09:15:15.719Z,4.80
2018-08-16T09:16:15.692Z,4.20
2018-08-16T09:17:15.661Z,4.30
2018-08-16T09:18:15.634Z,4.20
2018-08-16T09:19:15.598Z,4.50
2018-08-16T09:20:15.573Z,4.40
2018-08-16T09:21:15.540Z,4.70
2018-08-16T09:22:15.513Z,4.60
2018-08-16T09:23:15.483Z,4.50
2018-08-16T09:24:15.451Z,4.40
2018-08-16T09:25:15.418Z,4.20
2018-08-16T09:26:15.388Z,4.40
2018-08-16T09:27:15.357Z,4.50
2018-08-16T09:28:15.327Z,4.20
2018-08-16T09:29:15.300Z,4.40
2018-08-16T09:30:15.271Z,4.50
2018-08-16T09:31:15.303Z,4.40
2018-08-16T09:32:15.210Z,4.10
2018-08-16T09:33:15.176Z,4.80
2018-08-16T09:34:15.145Z,5.00
2018-08-16T09:35:15.122Z,4.40
2018-08-16T09:36:15.098Z,4.50
2018-08-16T09:37:15.057Z,4.40
2018-08-16T09:38:15.024Z,4.20
2018-08-16T09:39:15.067Z,4.10
2018-08-16T09:40:14.979Z,3.90
2018-08-16T09:41:14.941Z,3.80
2018-08-16T09:42:14.911Z,4.40
2018-08-16T09:43:14.885Z,4.00
2018-08-16T09:44:14.850Z,4.00
2018-08-16T09:45:14.839Z,3.90
2018-08-16T09:46:14.786Z,4.30
2018-08-16T09:47:14.758Z,4.20
2018-08-16T09:48:14.728Z,4.00
2018-08-16T09:49:14.701Z,4.30
2018-08-16T09:50:14.672Z,4.40
2018-08-16T09:51:14.646Z,4.40
2018-08-16T09:52:14.610Z,4.30
2018-08-16T09:53:14.580Z,4.60
2018-08-16T09:54:14.553Z,3.90
2018-08-16T09:55:14.524Z,4.10
2018-08-16T09:56:14.493Z,3.90
2018-08-16T09:57:14.476Z,4.40
2018-08-16T09:58:14.429Z,4.70
2018-08-16T09:59:14.400Z,4.30
2018-08-16T10:00:14.374Z,4.40
2018-08-16T10:01:14.345Z,4.10
2018-08-16T10:02:14.358Z,4.20
2018-08-16T10:03:14.289Z,4.20
2018-08-16T10:04:14.257Z,4.60
2018-08-16T10:05:14.225Z,4.20
2018-08-16T10:06:14.194Z,4.20
2018-08-16T10:07:14.173Z,4.40
2018-08-16T10:21:07.432Z,3.90
2018-08-16T10:22:07.346Z,4.10
2018-08-16T10:23:07.304Z,4.10
2018-08-16T10:24:07.273Z,4.30
2018-08-16T10:25:07.241Z,4.20
2018-08-16T10:26:07.205Z,4.50
2018-08-16T10:27:07.276Z,4.40
2018-08-16T10:28:07.147Z,4.30
2018-08-16T10:29:07.113Z,4.20
2018-08-16T10:30:07.085Z,4.70
2018-08-16T10:31:07.047Z,4.90
2018-08-16T10:32:07.032Z,4.60
2018-08-16T10:33:06.990Z,4.70
2018-08-16T10:34:06.956Z,4.70
2018-08-16T10:35:06.935Z,5.00
2018-08-16T10:36:06.907Z,4.90
2018-08-16T10:37:06.876Z,4.40
2018-08-16T10:38:06.838Z,4.50
2018-08-16T10:39:06.814Z,4.10
2018-08-16T10:40:06.783Z,4.30
2018-08-16T10:41:06.753Z,4.50
2018-08-16T10:42:06.726Z,4.80
2018-08-16T10:43:06.689Z,4.50
2018-08-16T10:44:06.665Z,4.20
2018-08-16T10:45:06.636Z,4.90
2018-08-16T10:46:06.602Z,4.50
2018-08-16T10:47:06.579Z,4.80
2018-08-16T10:48:06.549Z,4.30
2018-08-16T10:49:06.520Z,4.70
2018-08-16T10:50:06.493Z,4.60
2018-08-16T10:51:06.464Z,4.40
2018-08-16T10:52:06.430Z,4.50
2018-08-16T10:53:06.403Z,4.40
2018-08-16T10:54:06.374Z,4.60
2018-08-16T10:55:06.340Z,4.50
2018-08-16T10:56:06.315Z,4.80
2018-08-16T10:57:06.284Z,4.40
2018-08-16T10:58:06.253Z,4.30
2018-08-16T10:59:06.231Z,5.00
2018-08-16T11:00:06.242Z,4.00
2018-08-16T11:01:06.174Z,4.20
2018-08-16T11:02:06.144Z,4.60
2018-08-16T11:03:06.112Z,5.10
2018-08-16T11:04:06.084Z,4.30
2018-08-16T11:05:06.056Z,4.10
2018-08-16T11:06:06.024Z,4.00
2018-08-16T11:07:06.001Z,4.10
2018-08-16T11:08:05.971Z,4.30
2018-08-16T11:09:05.942Z,4.40
2018-08-16T11:10:05.910Z,4.50
2018-08-16T11:11:05.888Z,4.20
2018-08-16T11:12:05.857Z,4.30
2018-08-16T11:13:05.830Z,4.60
2018-08-16T11:14:05.802Z,4.60
2018-08-16T11:15:05.767Z,4.60
2018-08-16T11:16:05.744Z,4.50
2018-08-16T11:17:05.718Z,4.60
2018-08-16T11:18:05.683Z,4.60
2018-08-16T11:19:05.666Z,4.60
2018-08-16T11:20:05.630Z,4.40
2018-08-16T11:21:05.606Z,4.50
2018-08-16T11:22:05.578Z,4.80
2018-08-16T11:23:05.543Z,5.10
2018-08-16T11:24:05.515Z,4.60
2018-08-16T11:25:05.490Z,4.80
2018-08-16T11:26:05.466Z,5.10
2018-08-16T11:27:05.434Z,4.70
2018-08-16T11:28:05.403Z,4.60
2018-08-16T11:29:06.112Z,5.00
2018-08-16T11:30:05.345Z,4.60
2018-08-16T11:31:05.322Z,4.60
2018-08-16T11:32:05.296Z,4.80
2018-08-16T11:33:05.264Z,4.60
2018-08-16T11:34:05.238Z,5.20
2018-08-16T11:35:05.231Z,4.80
2018-08-16T11:36:05.182Z,5.10
2018-08-16T11:37:05.151Z,4.70
2018-08-16T11:38:05.126Z,4.80
2018-08-16T11:39:05.099Z,4.80
2018-08-16T11:40:05.068Z,4.40
2018-08-16T11:41:05.046Z,4.80
2018-08-16T11:42:05.010Z,4.60
2018-08-16T11:43:04.988Z,4.90
2018-08-16T11:44:04.958Z,4.60
2018-08-16T11:45:04.929Z,4.50
2018-08-16T11:46:04.903Z,4.40
2018-08-16T11:47:04.869Z,4.80
2018-08-16T11:48:04.844Z,5.00
2018-08-16T11:49:04.817Z,4.70
2018-08-16T11:50:04.785Z,4.30
2018-08-16T11:51:04.764Z,4.50
2018-08-16T11:52:04.742Z,4.90
2018-08-16T11:53:04.706Z,4.80
2018-08-16T11:54:04.680Z,4.60
2018-08-16T11:55:04.647Z,4.50
2018-08-16T11:56:04.621Z,4.70
2018-08-16T11:57:04.597Z,4.50
2018-08-16T11:58:04.570Z,4.70
2018-08-16T11:59:04.537Z,4.40
2018-08-16T12:00:04.512Z,4.60
2018-08-16T12:01:04.489Z,4.70
2018-08-16T12:02:04.499Z,4.80
2018-08-16T12:03:04.435Z,4.70
2018-08-16T12:04:04.407Z,4.60
2018-08-16T12:05:04.377Z,4.60
2018-08-16T12:06:04.346Z,4.70
2018-08-16T12:07:04.317Z,4.70
2018-08-16T12:08:04.287Z,4.50
2018-08-16T12:09:04.261Z,4.30
2018-08-16T12:10:04.233Z,4.40
2018-08-16T12:11:04.208Z,4.60
2018-08-16T12:12:04.185Z,4.10
2018-08-16T12:13:04.151Z,4.70
2018-08-16T12:14:04.126Z,4.40
2018-08-16T12:15:04.142Z,4.70
2018-08-16T12:16:04.073Z,4.80
2018-08-16T12:17:04.047Z,4.50
2018-08-16T12:18:04.018Z,4.60
2018-08-16T12:19:03.989Z,4.60
2018-08-16T12:20:03.960Z,4.20
2018-08-16T12:21:03.987Z,4.30
2018-08-16T12:22:03.907Z,4.70
2018-08-16T12:23:03.879Z,4.60
2018-08-16T12:24:03.855Z,4.40
2018-08-16T12:25:03.829Z,4.20
2018-08-16T12:26:03.797Z,4.70
2018-08-16T12:27:03.768Z,4.20
2018-08-16T12:28:03.744Z,4.80
2018-08-16T12:29:03.771Z,4.30
2018-08-16T12:30:03.690Z,4.30
2018-08-16T12:31:03.660Z,4.60
2018-08-16T12:32:03.631Z,4.30
2018-08-16T12:33:03.606Z,4.30
2018-08-16T12:34:03.576Z,4.70
2018-08-16T12:35:03.552Z,4.80
2018-08-16T12:36:03.528Z,4.60
2018-08-16T12:37:03.501Z,5.00
2018-08-16T12:38:03.471Z,4.50
2018-08-16T12:39:03.441Z,4.90
2018-08-16T12:40:03.426Z,5.20
2018-08-16T12:41:03.409Z,5.00
2018-08-16T12:42:03.377Z,5.40
2018-08-16T12:43:03.334Z,5.00
2018-08-16T12:44:03.310Z,5.30
2018-08-16T12:45:03.277Z,5.00
2018-08-16T12:46:03.249Z,4.70
2018-08-16T12:47:03.226Z,4.70
2018-08-16T12:48:03.201Z,4.80
2018-08-16T12:49:03.176Z,5.00
2018-08-16T12:50:03.145Z,5.00
2018-08-16T12:51:03.116Z,4.60
2018-08-16T12:52:03.088Z,5.00
2018-08-16T12:53:03.062Z,5.20
2018-08-16T12:54:03.035Z,5.30
2018-08-16T12:55:03.013Z,4.70
2018-08-16T12:56:02.985Z,4.90
2018-08-16T12:57:02.958Z,4.80
2018-08-16T12:58:02.928Z,5.10
2018-08-16T12:59:02.901Z,4.70
2018-08-16T13:00:02.871Z,5.00
2018-08-16T13:01:02.851Z,5.20
2018-08-16T13:02:02.820Z,5.30
2018-08-16T13:03:02.796Z,5.40
2018-08-16T13:04:02.763Z,5.70
2018-08-16T13:05:02.739Z,5.60
2018-08-16T13:06:02.713Z,5.20
2018-08-16T13:07:02.688Z,5.70
2018-08-16T13:08:02.661Z,5.90
2018-08-16T13:09:02.721Z,5.50
2018-08-16T13:10:02.607Z,6.00
2018-08-16T13:11:02.576Z,5.80
2018-08-16T13:12:02.554Z,5.80
2018-08-16T13:13:02.524Z,5.40
2018-08-16T13:14:02.496Z,5.70
2018-08-16T13:15:02.486Z,6.10
2018-08-16T13:16:02.449Z,6.20
2018-08-16T13:17:02.422Z,5.70
2018-08-16T13:18:02.391Z,6.10
2018-08-16T13:19:02.366Z,6.10
2018-08-16T13:20:02.342Z,6.40
2018-08-16T13:21:02.314Z,5.80
2018-08-16T13:22:02.285Z,6.70
2018-08-16T13:23:02.260Z,6.00
2018-08-16T13:24:02.231Z,5.40
2018-08-16T13:25:02.204Z,5.60
2018-08-16T13:26:02.199Z,5.50
2018-08-16T13:27:02.201Z,5.60
2018-08-16T13:28:02.127Z,5.80
2018-08-16T13:29:02.107Z,6.00
2018-08-16T13:30:02.089Z,5.50
2018-08-16T13:31:02.044Z,5.40
2018-08-16T13:32:02.020Z,5.60
2018-08-16T13:33:01.998Z,5.70
2018-08-16T13:34:01.967Z,5.60
2018-08-16T13:35:01.939Z,5.50
2018-08-16T13:36:01.912Z,6.00
2018-08-16T13:37:01.895Z,5.90
2018-08-16T13:38:01.860Z,5.60
2018-08-16T13:39:01.836Z,6.60
2018-08-16T13:40:01.815Z,5.70
2018-08-16T13:41:01.784Z,5.40
2018-08-16T13:42:01.756Z,16.20
2018-08-16T13:43:01.729Z,10.00
2018-08-16T13:44:01.700Z,6.80